sensor_id;sensor_type;location;lat;lon;timestamp;temperature;humidity
62912;DHT22;49111;51.028;4.218;2022-11-15T07:49:41;10.70;99.90
62912;DHT22;49111;51.028;4.218;2022-11-15T07:52:25;10.60;99.90
62912;DHT22;49111;51.028;4.218;2022-11-15T07:55:09;10.70;99.90
62912;DHT22;49111;51.028;4.218;2022-11-15T07:58:03;10.70;99.90
62912;DHT22;49111;51.028;4.218;2022-11-15T08:00:48;10.80;99.90
62912;DHT22;49111;51.028;4.218;2022-11-15T08:03:33;10.80;99.90
62912;DHT22;49111;51.028;4.218;2022-11-15T08:06:17;10.80;99.90
62912;DHT22;49111;51.028;4.218;2022-11-15T08:09:01;10.80;99.90
62912;DHT22;49111;51.028;4.218;2022-11-15T08:11:45;10.90;99.90
62912;DHT22;49111;51.028;4.218;2022-11-15T08:14:29;10.90;99.90
62912;DHT22;49111;51.028;4.218;2022-11-15T08:17:14;10.90;99.90
62912;DHT22;49111;51.028;4.218;2022-11-15T08:19:58;10.90;99.90
62912;DHT22;49111;51.028;4.218;2022-11-15T08:22:43;11.00;99.90
62912;DHT22;49111;51.028;4.218;2022-11-15T08:25:28;10.90;99.90
62912;DHT22;49111;51.028;4.218;2022-11-15T08:28:16;11.00;99.90
62912;DHT22;49111;51.028;4.218;2022-11-15T08:31:01;11.10;99.90
62912;DHT22;49111;51.028;4.218;2022-11-15T08:33:46;11.10;99.90
62912;DHT22;49111;51.028;4.218;2022-11-15T08:36:30;11.10;99.90
62912;DHT22;49111;51.028;4.218;2022-11-15T08:39:14;11.10;99.90
62912;DHT22;49111;51.028;4.218;2022-11-15T08:41:59;11.10;99.90
62912;DHT22;49111;51.028;4.218;2022-11-15T08:44:43;11.10;99.90
62912;DHT22;49111;51.028;4.218;2022-11-15T08:47:28;11.20;99.90
62912;DHT22;49111;51.028;4.218;2022-11-15T08:50:12;11.20;99.90
62912;DHT22;49111;51.028;4.218;2022-11-15T08:52:56;11.20;99.90
62912;DHT22;49111;51.028;4.218;2022-11-15T08:55:41;11.20;99.90
62912;DHT22;49111;51.028;4.218;2022-11-15T08:58:25;11.30;99.90
62912;DHT22;49111;51.028;4.218;2022-11-15T09:01:16;11.30;99.90
62912;DHT22;49111;51.028;4.218;2022-11-15T09:04:01;11.30;99.90
62912;DHT22;49111;51.028;4.218;2022-11-15T09:06:45;11.30;99.90
62912;DHT22;49111;51.028;4.218;2022-11-15T09:09:29;11.40;99.90
62912;DHT22;49111;51.028;4.218;2022-11-15T09:12:13;11.50;99.90
62912;DHT22;49111;51.028;4.218;2022-11-15T09:14:57;11.70;99.90
62912;DHT22;49111;51.028;4.218;2022-11-15T09:17:42;11.80;99.90
62912;DHT22;49111;51.028;4.218;2022-11-15T09:20:26;11.90;99.90
62912;DHT22;49111;51.028;4.218;2022-11-15T09:23:10;12.10;99.90
62912;DHT22;49111;51.028;4.218;2022-11-15T09:25:59;12.10;99.90
62912;DHT22;49111;51.028;4.218;2022-11-15T09:28:44;12.20;99.90
62912;DHT22;49111;51.028;4.218;2022-11-15T09:31:28;12.10;99.90
62912;DHT22;49111;51.028;4.218;2022-11-15T09:34:13;12.20;99.90
62912;DHT22;49111;51.028;4.218;2022-11-15T09:36:57;12.30;99.90
62912;DHT22;49111;51.028;4.218;2022-11-15T09:39:41;12.30;99.90
62912;DHT22;49111;51.028;4.218;2022-11-15T09:51:40;12.50;99.90
62912;DHT22;49111;51.028;4.218;2022-11-15T09:57:12;12.50;99.90
62912;DHT22;49111;51.028;4.218;2022-11-15T09:59:45;12.30;99.90
62912;DHT22;49111;51.028;4.218;2022-11-15T10:02:39;12.20;99.90
62912;DHT22;49111;51.028;4.218;2022-11-15T10:05:10;12.30;99.90
62912;DHT22;49111;51.028;4.218;2022-11-15T10:10:23;12.50;99.90
62912;DHT22;49111;51.028;4.218;2022-11-15T10:12:51;12.70;99.90
62912;DHT22;49111;51.028;4.218;2022-11-15T10:15:19;12.70;99.90
62912;DHT22;49111;51.028;4.218;2022-11-15T10:18:05;12.70;99.90
62912;DHT22;49111;51.028;4.218;2022-11-15T10:20:49;12.80;99.90
62912;DHT22;49111;51.028;4.218;2022-11-15T10:23:21;12.80;99.90
62912;DHT22;49111;51.028;4.218;2022-11-15T10:25:47;12.80;99.90
62912;DHT22;49111;51.028;4.218;2022-11-15T10:28:29;12.90;99.90
62912;DHT22;49111;51.028;4.218;2022-11-15T10:30:58;12.90;99.90
62912;DHT22;49111;51.028;4.218;2022-11-15T10:33:36;13.10;99.90
62912;DHT22;49111;51.028;4.218;2022-11-15T10:41:18;13.10;99.90
62912;DHT22;49111;51.028;4.218;2022-11-15T10:43:45;13.10;99.90
62912;DHT22;49111;51.028;4.218;2022-11-15T10:46:22;13.10;99.90
62912;DHT22;49111;51.028;4.218;2022-11-15T10:48:48;13.20;99.90
62912;DHT22;49111;51.028;4.218;2022-11-15T10:51:28;13.40;99.90
62912;DHT22;49111;51.028;4.218;2022-11-15T10:53:56;13.40;99.90
62912;DHT22;49111;51.028;4.218;2022-11-15T10:56:25;13.50;99.90
62912;DHT22;49111;51.028;4.218;2022-11-15T10:58:54;13.50;99.90
62912;DHT22;49111;51.028;4.218;2022-11-15T11:01:27;13.60;99.90
62912;DHT22;49111;51.028;4.218;2022-11-15T11:04:02;13.70;99.90
62912;DHT22;49111;51.028;4.218;2022-11-15T11:06:28;13.70;99.90
62912;DHT22;49111;51.028;4.218;2022-11-15T11:08:55;13.70;99.90
62912;DHT22;49111;51.028;4.218;2022-11-15T11:11:21;13.90;99.90
62912;DHT22;49111;51.028;4.218;2022-11-15T11:13:47;14.10;99.90
62912;DHT22;49111;51.028;4.218;2022-11-15T11:24:25;14.20;99.90
62912;DHT22;49111;51.028;4.218;2022-11-15T11:30:00;14.20;99.90
62912;DHT22;49111;51.028;4.218;2022-11-15T11:32:51;14.10;99.90
62912;DHT22;49111;51.028;4.218;2022-11-15T11:38:43;14.30;99.90
62912;DHT22;49111;51.028;4.218;2022-11-15T11:47:03;14.30;99.90
62912;DHT22;49111;51.028;4.218;2022-11-15T11:49:48;14.40;99.90
62912;DHT22;49111;51.028;4.218;2022-11-15T11:52:34;14.40;99.90
62912;DHT22;49111;51.028;4.218;2022-11-15T11:55:32;14.50;99.90
62912;DHT22;49111;51.028;4.218;2022-11-15T11:58:17;14.50;99.90
62912;DHT22;49111;51.028;4.218;2022-11-15T12:01:25;14.50;99.90
62912;DHT22;49111;51.028;4.218;2022-11-15T12:03:59;14.60;99.90
62912;DHT22;49111;51.028;4.218;2022-11-15T12:14:59;14.60;99.90
62912;DHT22;49111;51.028;4.218;2022-11-15T12:17:28;14.60;99.90
62912;DHT22;49111;51.028;4.218;2022-11-15T12:19:59;14.50;99.90
62912;DHT22;49111;51.028;4.218;2022-11-15T12:23:05;14.60;99.90
62912;DHT22;49111;51.028;4.218;2022-11-15T12:28:42;14.70;99.90
62912;DHT22;49111;51.028;4.218;2022-11-15T12:31:16;14.60;99.90
62912;DHT22;49111;51.028;4.218;2022-11-15T12:33:44;14.70;99.90
62912;DHT22;49111;51.028;4.218;2022-11-15T12:41:21;14.70;99.90
62912;DHT22;49111;51.028;4.218;2022-11-15T12:43:48;14.80;99.90
62912;DHT22;49111;51.028;4.218;2022-11-15T12:59:57;14.60;99.90
62912;DHT22;49111;51.028;4.218;2022-11-15T13:02:31;14.70;99.90
62912;DHT22;49111;51.028;4.218;2022-11-15T13:17:40;14.90;99.90
62912;DHT22;49111;51.028;4.218;2022-11-15T13:30:54;14.80;99.90
62912;DHT22;49111;51.028;4.218;2022-11-15T13:33:23;14.90;99.90
62912;DHT22;49111;51.028;4.218;2022-11-15T13:35:52;14.90;99.90
62912;DHT22;49111;51.028;4.218;2022-11-15T13:38:29;14.90;99.90
62912;DHT22;49111;51.028;4.218;2022-11-15T13:40:57;14.90;99.90
62912;DHT22;49111;51.028;4.218;2022-11-15T13:43:31;14.80;99.90
62912;DHT22;49111;51.028;4.218;2022-11-15T13:46:30;14.80;99.90
62912;DHT22;49111;51.028;4.218;2022-11-15T13:49:02;14.80;99.90
62912;DHT22;49111;51.028;4.218;2022-11-15T13:59:49;14.60;99.90
62912;DHT22;49111;51.028;4.218;2022-11-15T14:02:26;14.70;99.90
62912;DHT22;49111;51.028;4.218;2022-11-15T14:04:59;14.80;99.90
62912;DHT22;49111;51.028;4.218;2022-11-15T14:07:25;14.60;99.90
62912;DHT22;49111;51.028;4.218;2022-11-15T14:09:52;14.70;99.90
62912;DHT22;49111;51.028;4.218;2022-11-15T14:12:35;14.80;99.90
62912;DHT22;49111;51.028;4.218;2022-11-15T14:15:39;14.80;99.90
62912;DHT22;49111;51.028;4.218;2022-11-15T14:18:05;14.80;99.90
62912;DHT22;49111;51.028;4.218;2022-11-15T14:20:38;14.80;99.90
62912;DHT22;49111;51.028;4.218;2022-11-15T14:23:27;14.80;99.90
62912;DHT22;49111;51.028;4.218;2022-11-15T14:25:56;14.90;99.90
62912;DHT22;49111;51.028;4.218;2022-11-15T14:30:52;14.80;99.90
62912;DHT22;49111;51.028;4.218;2022-11-15T14:36:10;14.70;99.90
62912;DHT22;49111;51.028;4.218;2022-11-15T14:38:36;14.60;99.90
62912;DHT22;49111;51.028;4.218;2022-11-15T14:41:02;14.70;99.90
62912;DHT22;49111;51.028;4.218;2022-11-15T14:43:28;14.50;99.90
62912;DHT22;49111;51.028;4.218;2022-11-15T14:45:54;14.50;99.90
62912;DHT22;49111;51.028;4.218;2022-11-15T14:48:19;14.60;99.90
62912;DHT22;49111;51.028;4.218;2022-11-15T14:50:45;14.60;99.90
62912;DHT22;49111;51.028;4.218;2022-11-15T14:53:16;14.50;99.90
62912;DHT22;49111;51.028;4.218;2022-11-15T14:55:43;14.50;99.90
62912;DHT22;49111;51.028;4.218;2022-11-15T14:58:09;14.40;99.90
62912;DHT22;49111;51.028;4.218;2022-11-15T15:00:39;14.30;99.90
62912;DHT22;49111;51.028;4.218;2022-11-15T15:03:06;14.10;99.90
62912;DHT22;49111;51.028;4.218;2022-11-15T15:05:40;14.10;99.90
62912;DHT22;49111;51.028;4.218;2022-11-15T15:08:07;14.10;99.90
62912;DHT22;49111;51.028;4.218;2022-11-15T15:10:36;14.10;99.90
62912;DHT22;49111;51.028;4.218;2022-11-15T15:13:04;14.10;99.90
62912;DHT22;49111;51.028;4.218;2022-11-15T15:15:35;14.10;99.90
62912;DHT22;49111;51.028;4.218;2022-11-15T15:18:02;14.10;99.90
62912;DHT22;49111;51.028;4.218;2022-11-15T15:20:28;14.10;99.90
62912;DHT22;49111;51.028;4.218;2022-11-15T15:22:54;14.10;99.90
62912;DHT22;49111;51.028;4.218;2022-11-15T15:25:27;14.10;99.90
62912;DHT22;49111;51.028;4.218;2022-11-15T15:27:54;14.20;99.90
62912;DHT22;49111;51.028;4.218;2022-11-15T15:30:26;14.10;99.90
62912;DHT22;49111;51.028;4.218;2022-11-15T15:32:52;14.10;99.90
62912;DHT22;49111;51.028;4.218;2022-11-15T15:35:18;13.90;99.90
62912;DHT22;49111;51.028;4.218;2022-11-15T15:37:45;13.90;99.90
62912;DHT22;49111;51.028;4.218;2022-11-15T15:40:20;14.00;99.90
62912;DHT22;49111;51.028;4.218;2022-11-15T15:42:47;14.00;99.90
62912;DHT22;49111;51.028;4.218;2022-11-15T15:45:13;14.00;99.90
62912;DHT22;49111;51.028;4.218;2022-11-15T15:47:40;14.00;99.90
62912;DHT22;49111;51.028;4.218;2022-11-15T15:50:44;14.00;99.90
62912;DHT22;49111;51.028;4.218;2022-11-15T15:53:17;14.00;99.90
62912;DHT22;49111;51.028;4.218;2022-11-15T15:56:22;14.00;99.90
62912;DHT22;49111;51.028;4.218;2022-11-15T15:58:56;13.90;99.90
62912;DHT22;49111;51.028;4.218;2022-11-15T16:01:21;13.70;99.90
62912;DHT22;49111;51.028;4.218;2022-11-15T16:03:47;13.60;99.90
62912;DHT22;49111;51.028;4.218;2022-11-15T16:06:34;13.70;99.90
62912;DHT22;49111;51.028;4.218;2022-11-15T16:09:00;13.70;99.90
62912;DHT22;49111;51.028;4.218;2022-11-15T16:11:26;13.60;99.90
62912;DHT22;49111;51.028;4.218;2022-11-15T16:13:52;13.60;99.90
62912;DHT22;49111;51.028;4.218;2022-11-15T16:16:20;13.60;99.90
62912;DHT22;49111;51.028;4.218;2022-11-15T16:18:46;13.70;99.90
62912;DHT22;49111;51.028;4.218;2022-11-15T16:21:12;13.70;99.90
62912;DHT22;49111;51.028;4.218;2022-11-15T16:23:38;13.80;99.90
62912;DHT22;49111;51.028;4.218;2022-11-15T16:26:24;13.80;99.90
62912;DHT22;49111;51.028;4.218;2022-11-15T16:28:51;13.80;99.90
62912;DHT22;49111;51.028;4.218;2022-11-15T16:31:17;13.70;99.90
62912;DHT22;49111;51.028;4.218;2022-11-15T16:33:45;13.70;99.90
62912;DHT22;49111;51.028;4.218;2022-11-15T16:36:25;13.70;99.90
62912;DHT22;49111;51.028;4.218;2022-11-15T16:38:52;13.70;99.90
62912;DHT22;49111;51.028;4.218;2022-11-15T16:41:18;13.60;99.90
62912;DHT22;49111;51.028;4.218;2022-11-15T16:43:48;13.50;99.90
62912;DHT22;49111;51.028;4.218;2022-11-15T16:46:17;13.50;99.90
62912;DHT22;49111;51.028;4.218;2022-11-15T16:48:43;13.50;99.90
62912;DHT22;49111;51.028;4.218;2022-11-15T16:51:08;13.60;99.90
62912;DHT22;49111;51.028;4.218;2022-11-15T16:53:35;13.60;99.90
62912;DHT22;49111;51.028;4.218;2022-11-15T16:56:01;13.60;99.90
62912;DHT22;49111;51.028;4.218;2022-11-15T16:58:27;13.50;99.90
62912;DHT22;49111;51.028;4.218;2022-11-15T17:00:54;13.50;99.90
62912;DHT22;49111;51.028;4.218;2022-11-15T17:03:21;13.50;99.90
62912;DHT22;49111;51.028;4.218;2022-11-15T17:05:48;13.40;99.90
62912;DHT22;49111;51.028;4.218;2022-11-15T17:08:14;13.40;99.90
62912;DHT22;49111;51.028;4.218;2022-11-15T17:10:40;13.40;99.90
62912;DHT22;49111;51.028;4.218;2022-11-15T17:13:09;13.40;99.90
62912;DHT22;49111;51.028;4.218;2022-11-15T17:15:36;13.50;99.90
62912;DHT22;49111;51.028;4.218;2022-11-15T17:18:02;13.50;99.90
62912;DHT22;49111;51.028;4.218;2022-11-15T17:20:27;13.60;99.90
62912;DHT22;49111;51.028;4.218;2022-11-15T17:22:53;13.70;99.90
62912;DHT22;49111;51.028;4.218;2022-11-15T17:25:20;13.60;99.90
62912;DHT22;49111;51.028;4.218;2022-11-15T17:27:46;13.60;99.90
62912;DHT22;49111;51.028;4.218;2022-11-15T17:30:13;13.60;99.90
62912;DHT22;49111;51.028;4.218;2022-11-15T17:32:43;13.60;99.90
62912;DHT22;49111;51.028;4.218;2022-11-15T17:35:10;13.60;99.90
62912;DHT22;49111;51.028;4.218;2022-11-15T17:37:37;13.60;99.90
62912;DHT22;49111;51.028;4.218;2022-11-15T17:40:03;13.60;99.90
62912;DHT22;49111;51.028;4.218;2022-11-15T17:42:29;13.70;99.90
62912;DHT22;49111;51.028;4.218;2022-11-15T17:44:55;13.80;99.90
62912;DHT22;49111;51.028;4.218;2022-11-15T17:47:20;13.80;99.90
62912;DHT22;49111;51.028;4.218;2022-11-15T17:49:46;13.80;99.90
62912;DHT22;49111;51.028;4.218;2022-11-15T17:52:12;13.70;99.90
62912;DHT22;49111;51.028;4.218;2022-11-15T17:54:38;13.70;99.90
62912;DHT22;49111;51.028;4.218;2022-11-15T17:57:03;13.60;99.90
62912;DHT22;49111;51.028;4.218;2022-11-15T17:59:29;13.70;99.90
62912;DHT22;49111;51.028;4.218;2022-11-15T18:01:55;13.60;99.90
62912;DHT22;49111;51.028;4.218;2022-11-15T18:04:20;13.70;99.90
62912;DHT22;49111;51.028;4.218;2022-11-15T18:06:53;13.50;99.90
62912;DHT22;49111;51.028;4.218;2022-11-15T18:09:19;13.60;99.90
62912;DHT22;49111;51.028;4.218;2022-11-15T18:11:46;13.60;99.90
62912;DHT22;49111;51.028;4.218;2022-11-15T18:14:16;13.60;99.90
62912;DHT22;49111;51.028;4.218;2022-11-15T18:16:42;13.60;99.90
62912;DHT22;49111;51.028;4.218;2022-11-15T18:19:08;13.60;99.90
62912;DHT22;49111;51.028;4.218;2022-11-15T18:21:38;13.70;99.90
62912;DHT22;49111;51.028;4.218;2022-11-15T18:24:40;13.80;99.90
62912;DHT22;49111;51.028;4.218;2022-11-15T18:27:08;13.70;99.90
62912;DHT22;49111;51.028;4.218;2022-11-15T18:29:34;13.70;99.90
62912;DHT22;49111;51.028;4.218;2022-11-15T18:32:03;13.70;99.90
62912;DHT22;49111;51.028;4.218;2022-11-15T18:34:35;13.70;99.90
62912;DHT22;49111;51.028;4.218;2022-11-15T18:37:01;13.60;99.90
62912;DHT22;49111;51.028;4.218;2022-11-15T18:39:28;13.60;99.90
62912;DHT22;49111;51.028;4.218;2022-11-15T18:41:53;13.70;99.90
62912;DHT22;49111;51.028;4.218;2022-11-15T18:44:19;13.70;99.90
62912;DHT22;49111;51.028;4.218;2022-11-15T18:46:45;13.70;99.90
62912;DHT22;49111;51.028;4.218;2022-11-15T18:49:13;13.90;99.90
62912;DHT22;49111;51.028;4.218;2022-11-15T18:51:39;13.80;99.90
62912;DHT22;49111;51.028;4.218;2022-11-15T18:54:11;13.90;99.90
62912;DHT22;49111;51.028;4.218;2022-11-15T18:56:38;13.90;99.90
62912;DHT22;49111;51.028;4.218;2022-11-15T18:59:04;13.80;99.90
62912;DHT22;49111;51.028;4.218;2022-11-15T19:01:32;13.90;99.90
62912;DHT22;49111;51.028;4.218;2022-11-15T19:04:03;13.90;99.90
62912;DHT22;49111;51.028;4.218;2022-11-15T19:06:30;13.90;99.90
62912;DHT22;49111;51.028;4.218;2022-11-15T19:08:58;13.90;99.90
62912;DHT22;49111;51.028;4.218;2022-11-15T19:11:28;13.90;99.90
62912;DHT22;49111;51.028;4.218;2022-11-15T19:14:00;13.80;99.90
62912;DHT22;49111;51.028;4.218;2022-11-15T19:16:28;13.80;99.90
62912;DHT22;49111;51.028;4.218;2022-11-15T19:19:07;13.80;99.90
62912;DHT22;49111;51.028;4.218;2022-11-15T19:25:36;14.00;99.90
